Terminal Aerodrome Forecast
Issued by NWS Bismarck, ND

Home | Current Version | Previous Version | Text Only | Print | Product List | Glossary Off
Versions: 1 2 3 4 5 6 7 8 9 10 11 12 13 14 15

000
FTUS43 KBIS 200500
TAFBIS
TAF
KBIS 200526Z 2006/2106 32009KT P6SM SCT025
      TEMPO 2006/2010 BKN025
     FM201500 VRB03KT P6SM BKN025
     FM201900 17006KT P6SM BKN030
     FM210200 16008KT P6SM OVC035=

USA.gov is the U.S. government's official web portal to all federal, state and local government web resources and services.